Time;durP1;ratioP1;P1;durP2;ratioP2;P2;SDS_P1;SDS_P2;PMS_P1;PMS_P2;Temp;Humidity;BMP_temperature;BMP_pressure;BME280_temperature;BME280_humidity;BME280_pressure;Samples;Min_cycle;Max_cycle;Signal;HPM_P1;HPM_P2
2023/12/31 00:01:58;;;;;;;3.83;3.57;;;8.10;53.50;;;;;;21022;6709;118266;-76
2023/12/31 00:04:34;;;;;;;3.70;3.50;;;7.80;53.70;;;;;;21011;6709;116857;-76
2023/12/31 00:07:10;;;;;;;4.40;4.10;;;7.80;53.70;;;;;;20831;6707;305281;-77
2023/12/31 00:09:45;;;;;;;5.83;5.40;;;7.90;54.10;;;;;;20756;6709;307021;-77
2023/12/31 00:12:21;;;;;;;5.93;5.47;;;8.20;53.90;;;;;;20752;6724;278586;-77
2023/12/31 00:14:56;;;;;;;4.90;4.60;;;8.50;53.40;;;;;;20831;6706;308724;-76
2023/12/31 00:17:32;;;;;;;4.97;4.57;;;8.70;53.50;;;;;;20791;6719;276274;-76
2023/12/31 00:20:08;;;;;;;3.60;3.30;;;8.80;52.50;;;;;;20915;6719;116611;-78
2023/12/31 00:22:43;;;;;;;3.90;3.60;;;8.50;52.40;;;;;;21007;6709;119142;-76
2023/12/31 00:25:19;;;;;;;4.43;4.12;;;8.10;53.00;;;;;;20849;6694;304930;-76
2023/12/31 00:27:54;;;;;;;4.55;4.15;;;8.10;53.50;;;;;;20806;6709;315193;-77
2023/12/31 00:30:31;;;;;;;4.10;3.90;;;8.20;53.20;;;;;;20934;6694;117511;-77
2023/12/31 00:33:06;;;;;;;3.57;3.37;;;8.20;53.30;;;;;;21018;6709;117001;-77
2023/12/31 00:35:42;;;;;;;3.47;3.27;;;7.90;53.70;;;;;;21073;6695;118730;-77
2023/12/31 00:38:18;;;;;;;4.37;4.07;;;7.60;54.10;;;;;;20865;6695;333384;-77
2023/12/31 00:40:53;;;;;;;3.73;3.43;;;7.70;54.20;;;;;;20927;6695;117099;-78
2023/12/31 00:43:29;;;;;;;4.20;3.95;;;7.70;53.90;;;;;;20859;6695;304052;-77
2023/12/31 00:46:05;;;;;;;4.50;4.20;;;8.10;54.10;;;;;;20821;6709;276588;-76
2023/12/31 00:48:42;;;;;;;3.90;3.70;;;8.00;53.90;;;;;;21064;6695;118224;-75
2023/12/31 00:51:18;;;;;;;3.63;3.30;;;7.60;54.10;;;;;;20819;6709;117102;-75
2023/12/31 00:53:54;;;;;;;5.10;4.70;;;7.60;54.10;;;;;;20821;6709;305350;-76
2023/12/31 00:56:30;;;;;;;4.50;4.20;;;7.70;54.60;;;;;;20807;6709;275496;-76
2023/12/31 00:59:06;;;;;;;5.00;4.53;;;8.20;53.50;;;;;;20822;6709;275582;-77
2023/12/31 01:01:42;;;;;;;4.85;4.45;;;8.20;53.50;;;;;;20835;6703;332418;-77
2023/12/31 01:04:18;;;;;;;3.70;3.50;;;8.10;53.00;;;;;;21043;6706;117422;-78
2023/12/31 01:06:54;;;;;;;4.13;3.83;;;8.10;53.00;;;;;;21044;6706;118374;-77
2023/12/31 01:09:29;;;;;;;4.72;4.43;;;7.80;53.60;;;;;;20796;6705;307455;-78
2023/12/31 01:12:05;;;;;;;4.90;4.60;;;7.80;54.40;;;;;;20833;6704;304422;-77
2023/12/31 01:14:41;;;;;;;4.63;3.97;;;8.00;54.00;;;;;;21038;6704;120024;-76
2023/12/31 01:17:16;;;;;;;4.82;4.53;;;7.90;54.00;;;;;;20833;6704;304857;-77
2023/12/31 01:19:52;;;;;;;4.57;4.28;;;7.90;54.10;;;;;;20770;6704;308288;-77
2023/12/31 01:22:27;;;;;;;3.87;3.57;;;8.20;53.70;;;;;;21028;6704;116974;-77
2023/12/31 01:25:03;;;;;;;3.70;3.40;;;8.00;53.60;;;;;;21046;6704;117265;-76
2023/12/31 01:27:39;;;;;;;4.82;4.53;;;7.60;54.00;;;;;;20879;6691;304374;-77
2023/12/31 01:30:18;;;;;;;4.20;3.90;;;7.60;54.40;;;;;;20952;6706;116563;-77
2023/12/31 01:32:50;;;;;;;4.60;4.30;;;7.60;54.40;;;;;;20813;6706;306429;-76
2023/12/31 01:35:26;;;;;;;4.85;4.53;;;7.70;54.20;;;;;;20874;6691;304267;-76
2023/12/31 01:38:02;;;;;;;3.93;3.73;;;7.90;53.40;;;;;;20999;6721;118227;-76
2023/12/31 01:40:37;;;;;;;4.80;4.50;;;7.70;53.30;;;;;;20688;6706;278230;-78
2023/12/31 01:43:13;;;;;;;4.72;4.43;;;7.70;53.30;;;;;;20868;6694;274830;-77
2023/12/31 01:45:48;;;;;;;4.13;3.83;;;7.90;53.20;;;;;;21037;6709;116551;-76
2023/12/31 01:48:24;;;;;;;4.80;4.50;;;7.70;53.10;;;;;;20803;6709;304805;-76
2023/12/31 01:51:01;;;;;;;4.57;4.28;;;7.70;53.50;;;;;;20640;6709;317092;-77
2023/12/31 01:53:35;;;;;;;4.53;4.22;;;7.90;53.50;;;;;;20839;6703;274311;-77
2023/12/31 01:56:12;;;;;;;4.43;4.13;;;8.20;53.70;;;;;;20837;6718;298821;-76
2023/12/31 01:58:48;;;;;;;4.57;4.23;;;8.20;53.20;;;;;;20822;6703;332918;-77
2023/12/31 02:01:24;;;;;;;4.70;4.40;;;8.30;52.20;;;;;;20673;6718;305959;-76
2023/12/31 02:04:00;;;;;;;4.20;3.90;;;8.40;51.50;;;;;;21051;6718;116452;-75
2023/12/31 02:06:39;;;;;;;3.40;3.20;;;7.50;52.40;;;;;;21021;6709;145471;-75
2023/12/31 02:09:15;;;;;;;3.83;3.53;;;7.50;52.40;;;;;;21063;6695;116641;-77
2023/12/31 02:11:52;;;;;;;4.50;4.20;;;7.30;54.10;;;;;;20827;6706;304721;-76
2023/12/31 02:14:27;;;;;;;3.60;3.33;;;7.20;54.00;;;;;;21023;6706;117132;-77
2023/12/31 02:17:03;;;;;;;4.00;3.80;;;7.20;53.90;;;;;;20773;6721;304347;-77
2023/12/31 02:19:42;;;;;;;3.77;3.50;;;7.30;54.20;;;;;;20955;6718;119135;-76
2023/12/31 02:22:18;;;;;;;3.73;3.43;;;7.00;54.30;;;;;;21024;6713;116674;-78
2023/12/31 02:24:55;;;;;;;3.53;3.17;;;7.00;54.30;;;;;;21027;6709;118007;-77
2023/12/31 02:27:30;;;;;;;4.50;4.20;;;6.80;54.70;;;;;;20870;6709;277146;-77
2023/12/31 02:30:07;;;;;;;4.23;3.93;;;7.00;55.30;;;;;;20767;6694;306971;-76
2023/12/31 02:32:44;;;;;;;3.60;3.40;;;7.30;54.70;;;;;;21020;6708;117133;-76
2023/12/31 02:35:23;;;;;;;4.53;3.20;;;7.30;54.70;;;;;;21078;6709;117139;-76
2023/12/31 02:37:56;;;;;;;3.67;3.47;;;6.90;55.30;;;;;;21081;6694;116671;-74
2023/12/31 02:40:32;;;;;;;3.70;3.50;;;6.90;55.30;;;;;;20951;6709;117108;-76
2023/12/31 02:43:08;;;;;;;4.30;4.00;;;6.90;56.00;;;;;;20800;6709;333703;-77
2023/12/31 02:45:44;;;;;;;3.90;3.70;;;6.90;56.00;;;;;;21070;6694;117095;-76
2023/12/31 02:48:20;;;;;;;4.10;3.90;;;7.10;55.30;;;;;;20846;6694;307730;-76
2023/12/31 02:50:56;;;;;;;3.63;3.43;;;7.10;55.30;;;;;;20867;6709;117498;-76
2023/12/31 02:53:31;;;;;;;3.30;3.10;;;7.10;55.00;;;;;;20997;6724;117020;-76
2023/12/31 02:56:07;;;;;;;3.97;3.70;;;7.00;55.40;;;;;;20802;6721;275884;-76
2023/12/31 02:58:42;;;;;;;3.20;3.00;;;7.10;55.60;;;;;;21002;6719;117088;-76
2023/12/31 03:01:18;;;;;;;3.37;3.10;;;7.20;55.70;;;;;;20871;6706;118204;-75
2023/12/31 03:03:54;;;;;;;3.10;2.90;;;7.10;55.70;;;;;;21035;6706;119618;-77
2023/12/31 03:06:33;;;;;;;3.92;3.72;;;6.90;55.80;;;;;;20766;6715;335617;-78
2023/12/31 03:09:06;;;;;;;3.50;3.13;;;7.20;56.10;;;;;;20988;6724;116619;-77
2023/12/31 03:11:41;;;;;;;3.40;3.10;;;7.30;55.70;;;;;;21075;6695;117172;-77
2023/12/31 03:14:17;;;;;;;3.30;3.10;;;7.20;56.00;;;;;;21081;6709;118253;-77
2023/12/31 03:16:53;;;;;;;3.37;3.07;;;7.10;56.20;;;;;;21080;6695;117091;-76
2023/12/31 03:19:28;;;;;;;3.50;3.30;;;7.10;56.50;;;;;;20839;6709;277132;-75
2023/12/31 03:22:05;;;;;;;3.13;2.93;;;7.40;56.80;;;;;;21027;6709;118217;-76
2023/12/31 03:24:40;;;;;;;3.23;3.03;;;7.50;56.30;;;;;;21023;6695;117182;-76
2023/12/31 03:27:19;;;;;;;3.70;3.50;;;7.50;56.30;;;;;;20864;6695;333964;-77
2023/12/31 03:29:52;;;;;;;3.63;3.40;;;7.80;56.20;;;;;;21019;6695;117185;-76
2023/12/31 03:32:28;;;;;;;4.10;3.80;;;8.10;55.50;;;;;;20831;6749;306074;-77
2023/12/31 03:35:04;;;;;;;3.70;3.50;;;8.10;55.50;;;;;;20823;6709;291991;-76
2023/12/31 03:37:46;;;;;;;3.20;3.00;;;8.40;54.50;;;;;;21037;6709;117014;-76
2023/12/31 03:40:15;;;;;;;4.10;3.80;;;8.40;54.10;;;;;;20703;6709;306826;-77
2023/12/31 03:42:52;;;;;;;3.90;3.57;;;8.40;53.80;;;;;;21065;6694;116653;-76
2023/12/31 03:45:27;;;;;;;4.00;3.80;;;8.40;53.80;;;;;;20818;6709;291671;-77
2023/12/31 03:48:04;;;;;;;3.20;2.90;;;8.30;53.60;;;;;;21037;6709;117088;-76
2023/12/31 03:50:39;;;;;;;3.80;3.60;;;8.30;53.20;;;;;;20713;6694;336501;-76
2023/12/31 03:53:15;;;;;;;4.13;3.83;;;8.40;52.90;;;;;;21059;6694;117075;-76
2023/12/31 03:55:51;;;;;;;3.43;3.13;;;8.10;53.40;;;;;;21082;6694;116958;-76
2023/12/31 03:58:27;;;;;;;4.30;4.00;;;8.00;53.30;;;;;;21015;6709;117967;-77
2023/12/31 04:01:03;;;;;;;4.12;3.92;;;7.80;53.70;;;;;;20724;6694;335859;-77
2023/12/31 04:03:39;;;;;;;4.10;3.80;;;8.00;53.60;;;;;;21081;6694;117778;-76
2023/12/31 04:06:15;;;;;;;2.90;2.80;;;8.00;53.40;;;;;;21077;6694;116618;-77
2023/12/31 04:08:52;;;;;;;3.57;3.37;;;7.80;53.50;;;;;;21010;6709;117699;-77
2023/12/31 04:11:28;;;;;;;3.60;3.40;;;7.60;53.80;;;;;;20801;6709;117402;-77
2023/12/31 04:14:03;;;;;;;3.33;3.10;;;7.50;54.10;;;;;;21036;6709;116532;-77
2023/12/31 04:16:39;;;;;;;4.70;4.37;;;7.40;54.30;;;;;;20785;6709;349393;-76
2023/12/31 04:19:14;;;;;;;3.93;3.63;;;7.60;53.80;;;;;;21018;6709;117984;-76
2023/12/31 04:21:50;;;;;;;3.57;3.37;;;7.60;53.50;;;;;;21074;6709;117792;-77
2023/12/31 04:24:25;;;;;;;4.30;4.00;;;7.50;53.70;;;;;;20849;6695;293132;-76
2023/12/31 04:27:01;;;;;;;4.60;4.30;;;7.70;53.40;;;;;;20853;6709;275611;-77
2023/12/31 04:29:37;;;;;;;4.60;4.30;;;8.00;52.70;;;;;;20823;6695;307288;-79
2023/12/31 04:32:25;;;;;;;4.30;4.00;;;8.30;52.20;;;;;;20808;6709;275672;-77
2023/12/31 04:34:59;;;;;;;4.70;4.20;;;8.70;51.00;;;;;;20801;6709;306350;-76
2023/12/31 04:37:34;;;;;;;3.70;3.50;;;8.70;51.00;;;;;;21070;6695;116552;-76
2023/12/31 04:40:11;;;;;;;3.73;3.47;;;8.20;51.90;;;;;;20930;6709;116709;-76
2023/12/31 04:42:46;;;;;;;3.97;3.78;;;8.20;51.90;;;;;;20788;6712;335571;-77
2023/12/31 04:45:22;;;;;;;3.00;2.83;;;8.20;51.80;;;;;;21041;6705;116506;-75
2023/12/31 04:47:57;;;;;;;4.05;3.80;;;8.20;51.90;;;;;;20849;6701;304160;-76
2023/12/31 04:50:33;;;;;;;4.20;4.00;;;8.30;52.00;;;;;;20745;6690;335470;-76
2023/12/31 04:53:11;;;;;;;4.50;4.20;;;8.80;51.00;;;;;;20926;6673;332413;-76
2023/12/31 04:55:46;;;;;;;3.70;3.40;;;8.70;50.90;;;;;;21147;6673;116922;-76
2023/12/31 04:58:23;;;;;;;3.80;3.50;;;8.30;51.70;;;;;;21079;6688;117639;-76
2023/12/31 05:00:58;;;;;;;4.20;4.00;;;8.20;51.50;;;;;;20737;6688;308634;-76
2023/12/31 05:03:35;;;;;;;3.60;3.40;;;8.20;51.40;;;;;;21092;6688;118020;-76
2023/12/31 05:06:12;;;;;;;3.47;3.27;;;8.20;51.40;;;;;;21097;6688;117643;-77
2023/12/31 05:08:48;;;;;;;3.70;3.50;;;8.10;51.60;;;;;;20895;6677;303578;-76
2023/12/31 05:11:24;;;;;;;3.60;3.40;;;8.10;51.60;;;;;;20706;6688;334821;-77
2023/12/31 05:14:00;;;;;;;3.40;3.20;;;8.40;50.90;;;;;;21146;6673;122766;-76
2023/12/31 05:16:36;;;;;;;3.30;3.10;;;8.30;50.90;;;;;;21120;6673;117669;-76
2023/12/31 05:19:12;;;;;;;3.80;3.60;;;8.10;51.20;;;;;;20910;6673;303932;-77
2023/12/31 05:21:48;;;;;;;3.40;3.20;;;8.20;51.00;;;;;;20830;6705;303873;-77
2023/12/31 05:24:23;;;;;;;3.40;3.20;;;8.50;50.20;;;;;;20784;6704;335033;-77
2023/12/31 05:26:59;;;;;;;3.30;3.10;;;8.80;49.80;;;;;;20909;6675;306558;-76
2023/12/31 05:29:35;;;;;;;3.33;3.13;;;9.00;49.20;;;;;;20758;6708;306655;-77
2023/12/31 05:32:10;;;;;;;2.93;2.83;;;9.10;48.60;;;;;;21052;6697;120083;-75
2023/12/31 05:34:46;;;;;;;3.20;3.00;;;8.90;48.90;;;;;;20792;6708;338196;-77
2023/12/31 05:37:21;;;;;;;3.20;3.00;;;8.80;48.80;;;;;;20823;6705;275111;-77
2023/12/31 05:39:57;;;;;;;2.80;2.60;;;9.00;48.60;;;;;;21025;6690;116784;-77
2023/12/31 05:42:34;;;;;;;3.30;3.10;;;8.80;48.80;;;;;;20813;6705;300428;-77
2023/12/31 05:45:08;;;;;;;3.07;2.70;;;8.80;48.70;;;;;;21095;6690;116596;-77
2023/12/31 05:47:44;;;;;;;2.97;2.78;;;8.60;48.90;;;;;;20808;6708;305095;-77
2023/12/31 05:50:20;;;;;;;2.33;2.23;;;8.70;49.20;;;;;;20890;6718;117524;-76
2023/12/31 05:52:57;;;;;;;3.10;2.90;;;8.60;50.10;;;;;;20795;6716;322688;-76
2023/12/31 05:55:33;;;;;;;2.97;2.83;;;8.50;49.40;;;;;;20786;6720;305658;-77
2023/12/31 05:58:08;;;;;;;3.23;2.93;;;8.80;49.60;;;;;;21005;6717;116530;-77
2023/12/31 06:00:45;;;;;;;3.40;3.20;;;8.50;48.80;;;;;;20674;6705;306616;-76
2023/12/31 06:03:20;;;;;;;2.83;2.70;;;8.50;48.30;;;;;;21044;6702;116600;-77
2023/12/31 06:05:56;;;;;;;3.10;2.90;;;8.30;48.50;;;;;;20887;6694;276122;-77
2023/12/31 06:08:31;;;;;;;3.30;3.10;;;8.20;49.30;;;;;;20896;6690;304948;-77
2023/12/31 06:11:07;;;;;;;3.50;3.30;;;8.40;49.70;;;;;;20671;6711;278089;-77
2023/12/31 06:13:43;;;;;;;3.50;3.30;;;8.50;48.60;;;;;;20799;6721;276782;-77
2023/12/31 06:16:20;;;;;;;3.40;3.20;;;8.50;47.90;;;;;;21005;6723;67410;-77
2023/12/31 06:18:55;;;;;;;3.07;2.90;;;8.20;48.20;;;;;;21054;6708;67323;-77
2023/12/31 06:21:34;;;;;;;3.00;2.70;;;7.70;49.10;;;;;;20852;6769;70894;-77
2023/12/31 06:24:07;;;;;;;3.63;3.43;;;7.40;50.00;;;;;;20897;6679;298541;-77
2023/12/31 06:26:43;;;;;;;3.10;2.90;;;7.40;51.30;;;;;;21118;6686;67234;-77
2023/12/31 06:29:18;;;;;;;3.58;3.37;;;7.40;51.10;;;;;;20777;6721;304771;-76
2023/12/31 06:31:54;;;;;;;3.50;3.30;;;7.50;52.10;;;;;;20843;6701;276327;-76
2023/12/31 06:34:32;;;;;;;3.47;3.27;;;7.90;52.10;;;;;;20870;6686;303096;-79
2023/12/31 06:37:08;;;;;;;2.77;2.57;;;8.10;51.90;;;;;;21082;6700;67148;-75
2023/12/31 06:39:51;;;;;;;;;;;;;;;;;;;;;
2023/12/31 06:42:19;;;;;;;3.33;3.13;;;7.80;52.00;;;;;;20889;6694;304309;-75
2023/12/31 06:44:55;;;;;;;3.60;3.40;;;7.80;52.30;;;;;;20849;6705;305858;-75
2023/12/31 06:47:32;;;;;;;2.70;2.60;;;8.10;52.00;;;;;;21122;6686;72294;-74
2023/12/31 06:50:06;;;;;;;2.70;2.43;;;8.00;51.90;;;;;;20977;6705;73122;-75
2023/12/31 06:52:44;;;;;;;2.70;2.60;;;7.70;52.30;;;;;;20835;6709;277392;-74
2023/12/31 06:55:19;;;;;;;3.00;2.80;;;7.80;53.00;;;;;;20816;6718;276733;-75
2023/12/31 06:57:54;;;;;;;2.63;2.50;;;8.10;52.30;;;;;;21126;6686;72004;-75
2023/12/31 07:00:30;;;;;;;3.50;3.30;;;8.10;52.30;;;;;;20923;6716;67679;-75
2023/12/31 07:03:06;;;;;;;3.40;3.10;;;7.80;52.40;;;;;;21110;6688;67747;-76
2023/12/31 07:05:41;;;;;;;3.22;3.03;;;7.50;52.60;;;;;;20909;6688;303729;-76
2023/12/31 07:08:17;;;;;;;2.33;2.23;;;7.60;52.00;;;;;;21095;6694;67602;-76
2023/12/31 07:10:52;;;;;;;2.43;2.33;;;7.50;52.20;;;;;;21018;6694;67602;-76
2023/12/31 07:13:28;;;;;;;2.60;2.50;;;7.40;52.80;;;;;;20871;6704;304085;-76
2023/12/31 07:16:04;;;;;;;3.00;2.70;;;7.50;53.10;;;;;;21069;6707;67516;-75
2023/12/31 07:18:39;;;;;;;3.40;3.20;;;7.60;53.10;;;;;;20839;6711;307133;-77
2023/12/31 07:21:22;;;;;;;3.30;3.10;;;7.80;52.60;;;;;;20697;6701;306260;-77
2023/12/31 07:23:57;;;;;;;3.60;3.30;;;8.10;51.60;;;;;;21128;6686;68209;-76
2023/12/31 07:26:32;;;;;;;4.45;4.15;;;8.00;51.50;;;;;;20859;6702;305867;-77
2023/12/31 07:29:08;;;;;;;4.03;3.73;;;8.10;51.30;;;;;;21079;6701;67530;-77
2023/12/31 07:31:45;;;;;;;5.20;4.90;;;7.90;51.10;;;;;;20884;6694;308188;-79
2023/12/31 07:34:20;;;;;;;5.63;4.90;;;7.90;51.10;;;;;;21058;6709;67126;-79
2023/12/31 07:36:56;;;;;;;5.40;5.10;;;7.80;51.20;;;;;;21118;6692;67318;-77
2023/12/31 07:39:32;;;;;;;6.60;6.20;;;7.40;51.60;;;;;;20833;6707;306958;-77
2023/12/31 07:42:07;;;;;;;7.30;6.80;;;7.50;51.70;;;;;;20862;6701;303705;-76
2023/12/31 07:44:45;;;;;;;6.20;5.70;;;7.70;51.40;;;;;;21024;6716;70598;-77
2023/12/31 07:47:18;;;;;;;5.30;5.00;;;7.60;51.40;;;;;;21083;6692;66945;-76
2023/12/31 07:49:53;;;;;;;7.12;6.62;;;7.20;51.80;;;;;;20749;6720;307458;-77
2023/12/31 07:52:29;;;;;;;7.47;6.97;;;7.30;52.30;;;;;;20850;6707;275083;-76
2023/12/31 07:55:08;;;;;;;7.43;6.90;;;7.60;52.10;;;;;;20842;6707;290714;-77
2023/12/31 07:57:42;;;;;;;7.17;6.67;;;7.80;51.60;;;;;;20797;6722;277667;-75
2023/12/31 08:00:18;;;;;;;5.97;5.57;;;8.10;50.90;;;;;;20964;6707;68209;-74
2023/12/31 08:02:53;;;;;;;5.83;5.33;;;7.90;51.00;;;;;;21056;6710;69375;-77
2023/12/31 08:05:32;;;;;;;6.78;6.28;;;7.60;51.70;;;;;;20857;6704;304433;-76
2023/12/31 08:08:07;;;;;;;6.62;6.22;;;7.60;51.90;;;;;;20840;6707;305790;-77
2023/12/31 08:10:41;;;;;;;5.80;5.30;;;7.90;51.60;;;;;;20891;6722;67720;-75
2023/12/31 08:13:16;;;;;;;5.50;5.10;;;7.80;51.50;;;;;;21012;6722;67941;-75
2023/12/31 08:15:53;;;;;;;4.90;4.60;;;7.60;51.90;;;;;;21056;6707;67194;-75
2023/12/31 08:18:27;;;;;;;5.33;5.03;;;7.40;52.30;;;;;;20780;6722;307964;-78
2023/12/31 08:21:07;;;;;;;5.05;4.75;;;7.60;52.40;;;;;;20644;6706;336885;-76
2023/12/31 08:23:39;;;;;;;3.90;3.60;;;7.90;51.90;;;;;;21012;6721;69404;-76
2023/12/31 08:26:16;;;;;;;3.93;3.73;;;7.90;51.70;;;;;;20693;6721;277759;-75
2023/12/31 08:28:52;;;;;;;4.10;3.80;;;8.10;51.70;;;;;;20804;6721;280046;-78
2023/12/31 08:31:27;;;;;;;3.10;2.90;;;8.40;51.00;;;;;;20874;6707;68501;-76
2023/12/31 08:34:03;;;;;;;3.30;3.10;;;8.30;50.90;;;;;;21106;6692;72085;-77
2023/12/31 08:36:39;;;;;;;4.10;3.80;;;8.10;51.30;;;;;;20893;6692;307540;-77
2023/12/31 08:39:14;;;;;;;3.60;3.40;;;8.20;51.50;;;;;;20877;6692;302002;-77
2023/12/31 08:41:50;;;;;;;2.93;2.80;;;8.60;50.40;;;;;;21057;6707;69948;-77
2023/12/31 08:44:29;;;;;;;2.60;2.40;;;8.50;50.30;;;;;;21003;6722;68070;-76
2023/12/31 08:47:01;;;;;;;2.30;2.20;;;8.20;50.70;;;;;;21008;6720;67749;-76
2023/12/31 08:49:37;;;;;;;2.57;2.47;;;8.10;51.20;;;;;;21009;6707;67640;-77
2023/12/31 08:52:12;;;;;;;2.75;2.65;;;8.00;51.60;;;;;;20838;6709;334315;-77
2023/12/31 08:54:49;;;;;;;2.80;2.70;;;8.60;51.70;;;;;;20854;6701;307172;-78
2023/12/31 08:57:24;;;;;;;11.27;10.50;;;8.60;51.70;;;;;;21076;6701;67584;-77
2023/12/31 09:00:00;;;;;;;4.07;3.87;;;8.70;51.50;;;;;;20971;6707;67797;-77
2023/12/31 09:02:37;;;;;;;3.53;3.33;;;8.50;51.70;;;;;;21082;6704;66413;-76
2023/12/31 09:05:12;;;;;;;3.10;2.90;;;8.40;52.00;;;;;;21075;6707;66900;-81
2023/12/31 09:07:48;;;;;;;2.80;2.60;;;8.40;52.20;;;;;;21040;6707;67512;-77
2023/12/31 09:10:24;;;;;;;2.87;2.67;;;8.30;52.50;;;;;;21006;6692;67599;-77
2023/12/31 09:13:02;;;;;;;11.02;10.13;;;8.30;52.50;;;;;;20910;6692;303223;-78
2023/12/31 09:15:41;;;;;;;6.32;5.85;;;8.70;52.20;;;;;;20894;6692;285354;-78
2023/12/31 09:18:13;;;;;;;3.37;3.17;;;9.10;50.40;;;;;;21096;6692;66829;-77
2023/12/31 09:20:53;;;;;;;3.10;2.90;;;9.40;49.70;;;;;;20768;6692;307631;-75
2023/12/31 09:23:25;;;;;;;3.53;3.23;;;9.50;49.80;;;;;;21121;6692;67256;-74
2023/12/31 09:26:01;;;;;;;2.53;2.43;;;9.50;49.90;;;;;;21035;6707;72103;-75
2023/12/31 09:28:37;;;;;;;2.63;2.43;;;9.50;50.40;;;;;;21006;6720;67860;-78
2023/12/31 09:31:12;;;;;;;2.90;2.70;;;9.50;50.90;;;;;;20642;6705;308360;-80
2023/12/31 09:33:48;;;;;;;2.73;2.60;;;9.80;51.50;;;;;;21084;6705;66977;-77
2023/12/31 09:36:23;;;;;;;2.23;2.10;;;10.00;50.30;;;;;;21125;6705;66782;-78
2023/12/31 09:38:59;;;;;;;2.17;2.07;;;10.00;50.20;;;;;;21157;6692;66805;-78
2023/12/31 09:41:36;;;;;;;3.00;2.80;;;10.00;50.20;;;;;;20603;6778;332626;-83
2023/12/31 09:44:11;;;;;;;2.83;2.63;;;10.30;49.40;;;;;;21003;6721;66921;-83
2023/12/31 09:47:07;;;;;;;2.65;2.55;;;10.50;49.20;;;;;;20787;6722;333964;-82
2023/12/31 09:49:42;;;;;;;3.00;2.90;;;10.80;48.50;;;;;;20757;6720;338966;-81
2023/12/31 09:52:18;;;;;;;3.33;3.13;;;11.30;46.50;;;;;;21051;6707;75047;-80
2023/12/31 09:54:54;;;;;;;4.10;2.73;;;11.30;46.50;;;;;;21029;6707;117273;-81
2023/12/31 09:57:31;;;;;;;2.50;2.40;;;11.10;47.30;;;;;;21025;6710;116586;-78
2023/12/31 10:00:06;;;;;;;3.30;3.10;;;11.10;47.30;;;;;;20751;6707;276651;-77
2023/12/31 10:02:42;;;;;;;3.50;3.30;;;11.30;46.30;;;;;;20792;6707;276860;-78
2023/12/31 10:05:17;;;;;;;3.40;3.20;;;11.60;45.10;;;;;;20875;6692;302688;-77
2023/12/31 10:07:54;;;;;;;4.03;3.63;;;11.90;44.30;;;;;;20848;6692;303136;-79
2023/12/31 10:10:33;;;;;;;4.70;4.40;;;12.20;44.30;;;;;;20704;6707;277703;-76
2023/12/31 10:13:08;;;;;;;3.97;3.67;;;12.40;44.70;;;;;;20833;6705;304372;-76
2023/12/31 10:15:43;;;;;;;3.97;3.67;;;12.50;44.50;;;;;;20781;6720;304670;-79
2023/12/31 10:18:22;;;;;;;3.60;3.30;;;12.70;43.70;;;;;;20808;6714;275721;-81
2023/12/31 10:20:55;;;;;;;3.20;3.00;;;12.80;43.10;;;;;;20745;6730;275399;-79
2023/12/31 10:23:34;;;;;;;3.37;3.17;;;12.90;42.70;;;;;;21138;6674;117169;-80
2023/12/31 10:26:09;;;;;;;3.37;3.07;;;12.70;43.30;;;;;;21098;6688;116820;-79
2023/12/31 10:28:42;;;;;;;3.27;3.10;;;12.00;44.70;;;;;;21009;6707;116922;-77
2023/12/31 10:31:18;;;;;;;3.80;3.50;;;12.00;44.70;;;;;;20665;6705;306621;-77
2023/12/31 10:33:53;;;;;;;3.83;3.53;;;12.10;44.80;;;;;;21041;6705;117057;-77
2023/12/31 10:36:31;;;;;;;4.40;4.10;;;12.10;45.00;;;;;;20810;6705;275948;-76
2023/12/31 10:39:08;;;;;;;3.87;3.67;;;12.20;45.00;;;;;;20832;6705;306210;-80
2023/12/31 10:41:42;;;;;;;4.10;3.70;;;12.40;43.50;;;;;;20827;6705;333236;-77
2023/12/31 10:44:18;;;;;;;3.42;3.22;;;12.80;43.30;;;;;;20872;6691;276293;-78
2023/12/31 10:47:00;;;;;;;3.50;3.20;;;12.80;43.30;;;;;;20832;6705;275301;-78
2023/12/31 10:49:34;;;;;;;3.33;3.13;;;13.10;42.00;;;;;;20794;6706;304666;-81
2023/12/31 10:52:09;;;;;;;3.27;3.07;;;13.10;42.00;;;;;;20972;6777;117792;-77
2023/12/31 10:54:51;;;;;;;2.87;2.73;;;12.90;42.60;;;;;;20963;6721;120024;-76
2023/12/31 10:57:23;;;;;;;3.55;3.35;;;12.60;43.40;;;;;;20873;6692;304302;-76
2023/12/31 11:00:00;;;;;;;3.33;3.13;;;12.60;44.50;;;;;;20992;6692;117641;-78
2023/12/31 11:02:38;;;;;;;3.40;3.20;;;12.60;44.00;;;;;;20742;6721;276468;-74
2023/12/31 11:05:11;;;;;;;3.40;3.20;;;12.70;44.90;;;;;;20819;6707;305362;-75
2023/12/31 11:07:47;;;;;;;3.07;2.87;;;12.90;43.70;;;;;;20989;6720;116913;-76
2023/12/31 11:10:23;;;;;;;3.22;3.03;;;12.90;43.70;;;;;;20661;6705;309883;-76
2023/12/31 11:12:58;;;;;;;2.70;2.60;;;13.00;43.50;;;;;;21020;6705;118140;-75
2023/12/31 11:15:34;;;;;;;2.57;2.47;;;13.00;43.90;;;;;;21075;6692;116610;-76
2023/12/31 11:18:28;;;;;;;3.00;2.80;;;12.90;44.20;;;;;;20858;6692;302308;-77
2023/12/31 11:21:23;;;;;;;2.60;2.50;;;12.80;44.10;;;;;;19923;6805;119446;-79
2023/12/31 11:24:13;;;;;;;3.00;2.80;;;12.80;44.20;;;;;;20865;6707;305833;-77
2023/12/31 11:27:07;;;;;;;2.90;2.70;;;12.90;44.50;;;;;;21060;6692;116791;-74
2023/12/31 11:29:43;;;;;;;2.53;2.43;;;12.90;44.10;;;;;;20872;6748;120121;-77
2023/12/31 11:32:24;;;;;;;2.87;2.63;;;12.60;44.50;;;;;;21024;6707;117526;-76
2023/12/31 11:35:04;;;;;;;3.33;3.03;;;12.40;45.00;;;;;;21044;6692;116956;-80
2023/12/31 11:37:40;;;;;;;3.87;3.58;;;12.20;45.40;;;;;;20857;6705;300300;-82
2023/12/31 11:40:15;;;;;;;3.00;2.80;;;12.40;45.70;;;;;;20938;6705;117202;-81
2023/12/31 11:42:50;;;;;;;2.63;2.50;;;12.40;45.60;;;;;;21033;6705;116698;-78
2023/12/31 11:45:43;;;;;;;2.70;2.60;;;12.20;45.70;;;;;;21039;6705;116700;-78
2023/12/31 11:48:23;;;;;;;2.73;2.57;;;12.10;46.00;;;;;;20960;6707;117242;-75
2023/12/31 11:51:03;;;;;;;3.20;3.00;;;12.10;46.80;;;;;;20607;6725;278294;-76
2023/12/31 11:53:48;;;;;;;2.50;2.40;;;12.10;46.80;;;;;;20982;6722;118849;-79
2023/12/31 11:56:28;;;;;;;2.87;2.77;;;12.10;46.60;;;;;;20979;6706;117247;-74
2023/12/31 11:59:03;;;;;;;2.63;2.43;;;11.90;47.10;;;;;;21011;6706;117431;-76
2023/12/31 12:01:45;;;;;;;3.63;3.40;;;11.70;49.40;;;;;;20761;6720;306493;-77
2023/12/31 12:04:21;;;;;;;3.90;3.70;;;11.70;49.40;;;;;;20803;6705;295812;-78
2023/12/31 12:06:57;;;;;;;3.63;3.33;;;11.80;49.70;;;;;;21005;6705;117199;-77
2023/12/31 12:09:36;;;;;;;4.20;3.90;;;11.70;49.60;;;;;;20747;6705;307421;-79
2023/12/31 12:12:10;;;;;;;3.90;3.70;;;11.70;50.80;;;;;;20781;6705;275416;-80
2023/12/31 12:14:47;;;;;;;4.00;3.70;;;11.80;51.30;;;;;;20824;6705;275725;-80
2023/12/31 12:17:24;;;;;;;3.33;3.13;;;11.90;51.40;;;;;;21086;6692;116741;-81
2023/12/31 12:20:00;;;;;;;4.30;4.00;;;11.50;52.30;;;;;;20790;6692;308116;-80
2023/12/31 12:22:36;;;;;;;5.05;4.75;;;11.50;52.30;;;;;;20804;6707;304927;-83
2023/12/31 12:25:12;;;;;;;3.47;3.23;;;11.40;52.30;;;;;;21046;6707;116671;-81
2023/12/31 12:27:48;;;;;;;3.33;3.13;;;11.30;52.20;;;;;;21048;6707;117149;-76
2023/12/31 12:30:26;;;;;;;2.73;2.53;;;11.00;52.50;;;;;;20853;6720;120684;-77
2023/12/31 12:32:59;;;;;;;3.80;3.50;;;10.70;52.90;;;;;;20827;6722;274324;-77
2023/12/31 12:35:38;;;;;;;3.03;2.73;;;10.90;54.40;;;;;;20982;6720;116785;-79
2023/12/31 12:38:13;;;;;;;2.90;2.70;;;10.90;54.00;;;;;;21021;6707;121737;-78
2023/12/31 12:40:51;;;;;;;2.73;2.63;;;10.70;54.00;;;;;;20851;6705;119975;-76
2023/12/31 12:43:29;;;;;;;3.35;3.10;;;10.50;54.10;;;;;;20797;6705;303688;-78
2023/12/31 12:46:12;;;;;;;2.97;2.78;;;11.00;54.90;;;;;;20807;6705;333731;-77
2023/12/31 12:48:51;;;;;;;2.90;2.70;;;11.00;54.90;;;;;;21008;6705;117368;-81
2023/12/31 12:51:29;;;;;;;2.93;2.73;;;11.00;54.30;;;;;;20826;6720;117029;-80
2023/12/31 12:54:02;;;;;;;3.40;3.20;;;10.80;54.50;;;;;;20830;6707;276195;-76
2023/12/31 12:56:37;;;;;;;3.20;2.90;;;10.90;55.00;;;;;;21072;6707;117316;-78
2023/12/31 12:59:16;;;;;;;2.27;2.17;;;10.80;54.40;;;;;;21081;6692;117854;-77
2023/12/31 13:01:50;;;;;;;2.53;2.37;;;10.70;54.50;;;;;;21059;6701;116635;-79
2023/12/31 13:04:26;;;;;;;2.93;2.73;;;10.60;55.70;;;;;;20835;6701;304142;-78
2023/12/31 13:07:02;;;;;;;2.30;2.20;;;10.60;55.70;;;;;;21085;6701;116870;-80
2023/12/31 13:09:41;;;;;;;2.40;2.30;;;10.60;55.10;;;;;;21006;6701;116491;-78
2023/12/31 13:12:13;;;;;;;2.87;2.60;;;10.40;55.20;;;;;;21053;6701;116972;-77
2023/12/31 13:14:50;;;;;;;2.60;2.40;;;10.30;56.40;;;;;;20779;6715;317604;-77
2023/12/31 13:17:30;;;;;;;2.00;1.90;;;10.40;56.50;;;;;;20993;6721;116928;-77
2023/12/31 13:20:01;;;;;;;2.08;1.98;;;10.40;56.00;;;;;;20768;6707;335897;-80
2023/12/31 13:22:42;;;;;;;2.20;1.93;;;10.60;56.50;;;;;;21006;6721;117642;-79
2023/12/31 13:25:14;;;;;;;2.45;2.35;;;10.50;56.60;;;;;;20892;6692;333734;-80
2023/12/31 13:27:52;;;;;;;2.10;2.00;;;10.60;56.20;;;;;;21104;6692;120512;-74
2023/12/31 13:30:26;;;;;;;3.47;2.40;;;10.60;55.90;;;;;;20930;6707;117916;-78
2023/12/31 13:33:02;;;;;;;2.30;2.20;;;10.40;55.90;;;;;;20775;6721;307365;-77